Flight Track Log - Related Links

Times and Time Zones

All times are in EDT time to prevent confusion due to time zone crossing. See the TAM3712 flight status page for this flight to view local times or setup timezone preferences in your user account.

Time Position Orientation Groundspeed Altitude Reporting Facility
EDT Latitude Longitude Course Direction KTS MPH feet Rate Location/Type
Mon 06:30:07 PM -23.6210 -46.6600 360° North  Level FlightAware ADS-B
Mon 06:30:53 PM -23.6430 -46.6450 148° Southeast 159 183 3,300 4,000 Climbing FlightAware ADS-B
Mon 06:31:01 PM -23.6480 -46.6400 138° Southeast 162 186 3,600 1,125 Climbing FlightAware ADS-B
Mon 06:31:09 PM -23.6510 -46.6340 119° Southeast 171 197 3,600 375 Level FlightAware ADS-B
Mon 06:31:17 PM -23.6510 -46.6260 90° East 181 208 3,700 750 Climbing FlightAware ADS-B
Mon 06:31:25 PM -23.6490 -46.6180 75° East 197 227 3,800 750 Climbing FlightAware ADS-B
Mon 06:31:33 PM -23.6420 -46.6110 42° Northeast 203 234 3,900 1,125 Climbing FlightAware ADS-B
Mon 06:31:41 PM -23.6380 -46.6070 42° Northeast 205 236 4,100 1,000 Climbing FlightAware ADS-B
Mon 06:32:03 PM -23.6200 -46.5960 29° Northeast 227 261 4,400 968 Climbing FlightAware ADS-B
Mon 06:32:12 PM -23.6130 -46.5880 46° Northeast 245 282 4,600 1,059 Climbing FlightAware ADS-B
Mon 06:32:20 PM -23.6090 -46.5790 64° Northeast 263 303 4,700 1,862 Climbing FlightAware ADS-B
Mon 06:32:41 PM -23.6010 -46.5510 73° East 280 322 5,500 2,667 Climbing FlightAware ADS-B
Mon 06:33:05 PM -23.5950 -46.5160 79° East 282 325 6,700 2,634 Climbing FlightAware ADS-B
Mon 06:33:22 PM -23.5910 -46.4930 79° East 289 333 7,300 2,500 Climbing FlightAware ADS-B
Mon 06:33:53 PM -23.5790 -46.4350 77° East 307 353 8,700 2,423 Climbing FlightAware ADS-B
Mon 06:34:14 PM -23.5720 -46.4040 76° East 316 364 9,400 1,902 Climbing FlightAware ADS-B
Mon 06:34:34 PM -23.5650 -46.3730 76° East 320 368 10,000 1,091 Climbing FlightAware ADS-B
Mon 06:35:09 PM -23.5510 -46.3160 75° East 341 392 10,400 682 Climbing FlightAware ADS-B
Mon 06:35:18 PM -23.5440 -46.3030 60° Northeast 345 397 10,500 900 Climbing FlightAware ADS-B
Mon 06:35:29 PM -23.5310 -46.2890 45° Northeast 347 399 10,700 947 Climbing FlightAware ADS-B
Mon 06:35:37 PM -23.5200 -46.2830 27° Northeast 345 397 10,800 1,125 Climbing FlightAware ADS-B
Mon 06:35:45 PM -23.5080 -46.2790 17° North 343 395 11,000 1,286 Climbing FlightAware ADS-B
Mon 06:35:51 PM -23.4980 -46.2780 North 344 396 11,100 857 Climbing FlightAware ADS-B
Mon 06:36:13 PM -23.4640 -46.2880 345° North 351 404 11,400 889 Climbing FlightAware ADS-B
Mon 06:36:45 PM -23.4150 -46.3160 332° Northwest 377 434 11,900 1,324 Climbing FlightAware ADS-B
Mon 06:37:21 PM -23.3590 -46.3490 332° Northwest 393 452 12,900 1,973 Climbing FlightAware ADS-B
Mon 06:37:58 PM -23.3000 -46.3810 334° Northwest 392 451 14,300 2,000 Climbing FlightAware ADS-B
Mon 06:38:33 PM -23.2410 -46.4130 334° Northwest 401 461 15,300 1,588 Climbing FlightAware ADS-B
Mon 06:39:06 PM -23.1860 -46.4430 333° Northwest 410 472 16,100 1,676 Climbing FlightAware ADS-B
Mon 06:39:41 PM -23.1250 -46.4760 334° Northwest 415 478 17,200 1,944 Climbing FlightAware ADS-B
Mon 06:40:17 PM -23.0640 -46.5090 334° Northwest 412 474 18,400 1,583 Climbing FlightAware ADS-B
Mon 06:40:53 PM -23.0010 -46.5430 334° Northwest 421 484 19,100 1,125 Climbing FlightAware ADS-B
Mon 06:41:21 PM -22.9500 -46.5690 335° Northwest 433 498 19,600 1,050 Climbing FlightAware ADS-B
Mon 06:41:33 PM -22.9270 -46.5740 349° North 440 506 19,800 1,500 Climbing FlightAware ADS-B
Mon 06:42:09 PM -22.8550 -46.5860 351° North 440 506 20,800 1,667 Climbing FlightAware ADS-B
Mon 06:42:45 PM -22.7820 -46.5980 351° North 437 503 21,800 1,324 Climbing FlightAware ADS-B
Mon 06:43:17 PM -22.7170 -46.6090 351° North 444 511 22,300 1,147 Climbing FlightAware ADS-B
Mon 06:43:53 PM -22.6440 -46.6220 351° North 443 510 23,100 1,352 Climbing FlightAware ADS-B
Mon 06:44:28 PM -22.5750 -46.6330 352° North 442 509 23,900 1,391 Climbing FlightAware ADS-B
Mon 06:45:02 PM -22.5050 -46.6440 352° North 436 502 24,700 1,029 Climbing FlightAware ADS-B
Mon 06:45:38 PM -22.4340 -46.6550 352° North 441 507 25,100 1,286 Climbing FlightAware ADS-B
Mon 06:46:12 PM -22.3650 -46.6670 351° North 422 486 26,200 1,391 Climbing FlightAware ADS-B
Mon 06:46:47 PM -22.2940 -46.6780 352° North 436 502 26,700 943 Climbing FlightAware ADS-B
Mon 06:47:22 PM -22.2250 -46.6880 352° North 436 502 27,300 943 Climbing FlightAware ADS-B
Mon 06:47:57 PM -22.1540 -46.6990 352° North 442 509 27,800 857 Climbing FlightAware ADS-B
Mon 06:48:32 PM -22.0820 -46.7100 352° North 436 502 28,300 1,273 Climbing FlightAware ADS-B
Mon 06:49:03 PM -22.0240 -46.7250 347° North 417 480 29,200 1,714 Climbing FlightAware ADS-B
Mon 06:49:42 PM -21.9530 -46.7590 336° Northwest 405 466 30,300 1,360 Climbing FlightAware ADS-B
Mon 06:50:18 PM -21.8910 -46.7870 337° Northwest 405 466 30,900 1,183 Climbing FlightAware ADS-B
Mon 06:50:53 PM -21.8290 -46.8160 337° Northwest 404 465 31,700 1,114 Climbing FlightAware ADS-B
Mon 06:51:28 PM -21.7670 -46.8450 337° Northwest 404 465 32,200 943 Climbing FlightAware ADS-B
Mon 06:52:03 PM -21.7070 -46.8730 337° Northwest 403 464 32,800 1,183 Climbing FlightAware ADS-B
Mon 06:52:39 PM -21.6440 -46.9010 338° Northwest 405 466 33,600 868 Climbing FlightAware ADS-B
Mon 06:53:19 PM -21.5760 -46.9330 336° Northwest 403 464 33,900 720 Climbing FlightAware ADS-B
Mon 06:53:54 PM -21.5140 -46.9620 336° Northwest 401 461 34,500 957 Climbing FlightAware ADS-B
Mon 06:54:28 PM -21.4540 -46.9890 337° Northwest 401 461 35,000 857 Climbing FlightAware ADS-B
Mon 06:55:04 PM -21.3920 -47.0180 336° Northwest 407 468 35,500 514 Climbing FlightAware ADS-B
Mon 06:55:38 PM -21.3350 -47.0440 337° Northwest 402 463 35,600 333 Climbing FlightAware ADS-B
Mon 06:56:16 PM -21.2640 -47.0770 337° Northwest 417 480 35,900 575 Climbing FlightAware ADS-B
Mon 06:56:51 PM -21.2010 -47.1060 337° Northwest 415 478 36,300 667 Climbing FlightAware ADS-B
Mon 06:57:28 PM -21.1360 -47.1350 337° Northwest 413 475 36,700 529 Climbing FlightAware ADS-B
Mon 06:57:59 PM -21.0800 -47.1610 337° Northwest 417 480 36,900 269 Climbing FlightAware ADS-B
Mon 06:58:35 PM -21.0160 -47.1900 337° Northwest 421 484 37,000 83 Climbing FlightAware ADS-B
Mon 06:59:11 PM -20.9510 -47.2200 337° Northwest 427 491 37,000  Level FlightAware ADS-B
Mon 06:59:43 PM -20.8940 -47.2470 336° Northwest 430 495 37,000  Level FlightAware ADS-B
Mon 07:00:21 PM -20.8230 -47.2790 337° Northwest 430 495 37,000  Level FlightAware ADS-B
Mon 07:00:57 PM -20.7570 -47.3090 337° Northwest 430 495 37,000  Level FlightAware ADS-B
Mon 07:01:33 PM -20.6910 -47.3390 337° Northwest 429 494 37,000  Level FlightAware ADS-B
Mon 07:02:05 PM -20.6320 -47.3660 337° Northwest 430 495 37,000  Level FlightAware ADS-B
Mon 07:02:41 PM -20.5650 -47.3960 337° Northwest 432 497 37,000  Level FlightAware ADS-B
Mon 07:03:15 PM -20.5030 -47.4240 337° Northwest 434 499 37,000  Level FlightAware ADS-B
Mon 07:03:53 PM -20.4320 -47.4570 336° Northwest 435 501 37,000  Level FlightAware ADS-B
Mon 07:04:25 PM -20.3730 -47.4830 338° Northwest 435 501 37,000  Level FlightAware ADS-B
Mon 07:05:00 PM -20.3090 -47.5120 337° Northwest 433 498 37,000  Level FlightAware ADS-B
Mon 07:05:37 PM -20.2400 -47.5430 337° Northwest 432 497 37,000  Level FlightAware ADS-B
Mon 07:06:09 PM -20.1800 -47.5700 337° Northwest 432 497 37,000  Level FlightAware ADS-B
Mon 07:06:45 PM -20.1140 -47.6000 337° Northwest 431 496 37,000  Level FlightAware ADS-B
Mon 07:07:20 PM -20.0520 -47.6280 337° Northwest 433 498 37,000  Level FlightAware ADS-B
Mon 07:07:57 PM -19.9820 -47.6600 337° Northwest 435 501 37,000  Level FlightAware ADS-B
Mon 07:08:30 PM -19.9190 -47.6880 337° Northwest 432 497 37,000  Level FlightAware ADS-B
Mon 07:09:06 PM -19.8530 -47.7180 337° Northwest 436 502 37,000  Level FlightAware ADS-B
Mon 07:09:42 PM -19.7860 -47.7480 337° Northwest 440 506 37,000  Level FlightAware ADS-B
Mon 07:10:18 PM -19.7170 -47.7790 337° Northwest 444 511 37,000  Level FlightAware ADS-B
Mon 07:10:50 PM -19.6590 -47.8050 337° Northwest 443 510 37,000  Level FlightAware ADS-B
Mon 07:11:26 PM -19.5880 -47.8370 337° Northwest 439 505 37,000  Level FlightAware ADS-B
Mon 07:12:02 PM -19.5230 -47.8660 337° Northwest 438 504 37,000  Level FlightAware ADS-B
Mon 07:12:38 PM -19.4540 -47.8970 337° Northwest 439 505 37,000  Level FlightAware ADS-B
Mon 07:13:10 PM -19.3940 -47.9240 337° Northwest 440 506 37,000  Level FlightAware ADS-B
Mon 07:13:46 PM -19.3280 -47.9530 337° Northwest 438 504 37,000  Level FlightAware ADS-B
Mon 07:14:22 PM -19.2600 -47.9830 337° Northwest 444 511 37,000  Level FlightAware ADS-B
Mon 07:14:58 PM -19.1920 -48.0140 337° Northwest 442 509 37,000  Level FlightAware ADS-B
Mon 07:15:29 PM -19.1330 -48.0400 337° Northwest 441 507 37,000  Level FlightAware ADS-B
Mon 07:16:04 PM -19.0660 -48.0700 337° Northwest 440 506 37,000  Level FlightAware ADS-B
Mon 07:16:42 PM -18.9960 -48.0980 339° North 440 506 37,000  Level FlightAware ADS-B
Mon 07:17:18 PM -18.9210 -48.1110 351° North 442 509 37,000  Level FlightAware ADS-B
Mon 07:17:50 PM -18.8580 -48.1210 351° North 445 512 37,000  Level FlightAware ADS-B
Mon 07:18:26 PM -18.7820 -48.1330 351° North 452 520 37,000  Level FlightAware ADS-B
Mon 07:19:02 PM -18.7070 -48.1450 351° North 456 525 37,000  Level FlightAware ADS-B
Mon 07:19:34 PM -18.6410 -48.1550 352° North 460 529 37,000 88 Level FlightAware ADS-B
Mon 07:20:10 PM -18.5700 -48.1660 352° North 460 529 37,100 83 Climbing FlightAware ADS-B
Mon 07:20:46 PM -18.4900 -48.1790 351° North 459 528 37,100  Level FlightAware ADS-B
Mon 07:21:20 PM -18.4170 -48.1900 352° North 455 524 37,100 -83 Level FlightAware ADS-B
Mon 07:21:58 PM -18.3400 -48.2030 351° North 452 520 37,000 -86 Descending FlightAware ADS-B
Mon 07:22:30 PM -18.2710 -48.2130 352° North 451 519 37,000  Level FlightAware ADS-B
Mon 07:23:06 PM -18.1980 -48.2250 351° North 457 526 37,000  Level FlightAware ADS-B
Mon 07:23:42 PM -18.1220 -48.2370 351° North 460 529 37,000  Level FlightAware ADS-B
Mon 07:24:12 PM -18.0590 -48.2470 351° North 461 531 37,000  Level FlightAware ADS-B
Mon 07:24:48 PM -17.9850 -48.2580 352° North 462 532 37,000  Level FlightAware ADS-B
Mon 07:25:28 PM -17.8990 -48.2720 351° North 463 533 37,000  Level FlightAware ADS-B
Mon 07:26:00 PM -17.8300 -48.2830 351° North 462 532 37,000  Level FlightAware ADS-B
Mon 07:26:36 PM -17.7520 -48.2950 352° North 464 534 37,000  Level FlightAware ADS-B
Mon 07:27:12 PM -17.6760 -48.3070 351° North 463 533 37,000 -265 Level FlightAware ADS-B
Mon 07:27:44 PM -17.6080 -48.3170 352° North 465 535 36,700 -1,765 Descending FlightAware ADS-B
Mon 07:28:20 PM -17.5300 -48.3300 351° North 464 534 35,000 -2,667 Descending FlightAware ADS-B
Mon 07:28:56 PM -17.4540 -48.3410 352° North 463 533 33,500 -2,833 Descending FlightAware ADS-B
Mon 07:29:32 PM -17.3760 -48.3540 351° North 471 542 31,600 -3,500 Descending FlightAware ADS-B
Mon 07:30:08 PM -17.2990 -48.3660 352° North 480 552 29,300 -3,618 Descending FlightAware ADS-B
Mon 07:30:40 PM -17.2260 -48.3770 352° North 482 555 27,500 -2,961 Descending FlightAware ADS-B
Mon 07:31:25 PM -17.1290 -48.3920 352° North 469 540 25,500 -2,676 Descending FlightAware ADS-B
Mon 07:31:54 PM -17.0670 -48.4020 351° North 460 529 24,200 -2,507 Descending FlightAware ADS-B
Mon 07:32:32 PM -16.9860 -48.4130 353° North 451 519 22,700 -2,190 Descending FlightAware ADS-B
Mon 07:32:57 PM -16.9350 -48.4070 North 446 513 21,900 -2,123 Descending FlightAware ADS-B
Mon 07:33:37 PM -16.8560 -48.3840 16° North 431 496 20,400 -2,320 Descending FlightAware ADS-B
Mon 07:34:12 PM -16.7900 -48.3620 18° North 425 489 19,000 -2,123 Descending FlightAware ADS-B
Mon 07:34:42 PM -16.7410 -48.3370 26° Northeast 397 457 18,100 -2,057 Descending FlightAware ADS-B
Mon 07:35:22 PM -16.6760 -48.3020 27° Northeast 377 434 16,600 -2,073 Descending FlightAware ADS-B
Mon 07:35:37 PM -16.6520 -48.2910 24° Northeast 371 427 16,200 -1,067 Descending FlightAware ADS-B
Mon 07:36:07 PM -16.6040 -48.2800 12° North 344 396 15,800 -1,292 Descending FlightAware ADS-B
Mon 07:36:42 PM -16.5520 -48.2680 12° North 326 375 14,800 -1,760 Descending FlightAware ADS-B
Mon 07:37:22 PM -16.4920 -48.2550 12° North 319 367 13,600 -1,629 Descending FlightAware ADS-B
Mon 07:37:52 PM -16.4490 -48.2450 13° North 315 362 12,900 -1,714 Descending FlightAware ADS-B
Mon 07:38:32 PM -16.3920 -48.2320 12° North 313 360 11,600 -1,600 Descending FlightAware ADS-B
Mon 07:39:07 PM -16.3430 -48.2210 12° North 315 362 10,900 -923 Descending FlightAware ADS-B
Mon 07:39:37 PM -16.3010 -48.2120 12° North 302 348 10,600 -646 Descending FlightAware ADS-B
Mon 07:40:12 PM -16.2540 -48.2010 13° North 292 336 10,200 -764 Descending FlightAware ADS-B
Mon 07:40:32 PM -16.2280 -48.1950 12° North 288 331 9,900 -1,200 Descending FlightAware ADS-B
Mon 07:40:52 PM -16.2020 -48.1900 10° North 287 330 9,400 -1,200 Descending FlightAware ADS-B
Mon 07:41:12 PM -16.1760 -48.1840 12° North 277 319 9,100 -750 Descending FlightAware ADS-B
Mon 07:41:32 PM -16.1510 -48.1790 11° North 264 304 8,900 -533 Descending FlightAware ADS-B
Mon 07:41:57 PM -16.1220 -48.1800 358° North 249 287 8,700 -600 Descending FlightAware ADS-B
Mon 07:42:22 PM -16.0940 -48.1810 358° North 234 269 8,400 -533 Descending FlightAware ADS-B
Mon 07:42:42 PM -16.0730 -48.1810 360° North 223 257 8,300 -450 Descending FlightAware ADS-B
Mon 07:43:02 PM -16.0520 -48.1820 357° North 217 250 8,100 -750 Descending FlightAware ADS-B
Mon 07:43:22 PM -16.0320 -48.1820 360° North 213 245 7,800 -900 Descending FlightAware ADS-B
Mon 07:43:42 PM -16.0120 -48.1830 357° North 212 244 7,500 -800 Descending FlightAware ADS-B
Mon 07:44:07 PM -15.9880 -48.1830 360° North 212 244 7,200 -667 Descending FlightAware ADS-B
Mon 07:44:27 PM -15.9700 -48.1770 18° North 218 251 7,000 -480 Descending FlightAware ADS-B
Mon 07:44:32 PM -15.9660 -48.1730 44° Northeast 218 251 7,000 -600 Level FlightAware ADS-B
Mon 07:44:57 PM -15.9480 -48.1540 45° Northeast 218 251 6,700 -600 Descending FlightAware ADS-B
Mon 07:45:12 PM -15.9380 -48.1430 47° Northeast 215 247 6,600 -300 Descending FlightAware ADS-B
Mon 07:45:37 PM -15.9210 -48.1250 46° Northeast 215 247 6,500 -267 Descending FlightAware ADS-B
Mon 07:45:57 PM -15.9060 -48.1100 44° Northeast 214 246 6,400 -450 Descending FlightAware ADS-B
Mon 07:46:17 PM -15.8930 -48.0950 48° Northeast 218 251 6,200 -600 Descending FlightAware ADS-B
Mon 07:46:27 PM -15.8910 -48.0850 78° East 214 246 6,100 -600 Descending FlightAware ADS-B
Mon 07:46:47 PM -15.8890 -48.0650 84° East 197 227 5,900 -1,050 Descending FlightAware ADS-B
Mon 07:47:07 PM -15.8880 -48.0470 87° East 189 217 5,400 -1,333 Descending FlightAware ADS-B
Mon 07:47:32 PM -15.8860 -48.0240 85° East 182 209 4,900 -1,050 Descending FlightAware ADS-B
Mon 07:47:47 PM -15.8850 -48.0120 85° East 169 194 4,700 -900 Descending FlightAware ADS-B
Mon 07:48:12 PM -15.8840 -47.9920 87° East 163 188 4,300 -800 Descending FlightAware ADS-B
Mon 07:48:32 PM -15.8830 -47.9770 86° East 162 186 4,100 -750 Descending FlightAware ADS-B
Mon 07:48:52 PM -15.8820 -47.9610 86° East 164 189 3,800 -900 Descending FlightAware ADS-B
Mon 07:49:12 PM -15.8810 -47.9450 86° East 162 186 3,500 -750 Descending FlightAware ADS-B
Mon 07:49:32 PM -15.8800 -47.9320 85° East 158 182 3,300 -250 Descending FlightAware ADS-B
Mon 07:50:00 PM -15.8790 -47.9140 87° East 158 182 3,300 109 Level FlightAware ADS-B
Mon 07:50:27 PM -15.8780 -47.9170 289° West 158 182 3,400 115 Climbing FlightAware ADS-B
Mon 07:50:52 PM -15.8770 -47.9010 86° East 158 182 3,400  Level FlightAware ADS-B

Login

Don't have an account? Register now (free) for customized features, flight alerts, and more!